createdAt,value
2019-04-28T00:01:11.444Z,100.00
2019-04-28T00:03:44.565Z,100.00
2019-04-28T00:06:18.692Z,100.00
2019-04-28T00:08:51.866Z,100.00
2019-04-28T00:11:25.199Z,100.00
2019-04-28T00:13:58.285Z,100.00
2019-04-28T00:16:32.512Z,100.00
2019-04-28T00:19:06.395Z,100.00
2019-04-28T00:21:54.634Z,100.00
2019-04-28T00:24:52.615Z,100.00
2019-04-28T00:27:25.909Z,100.00
2019-04-28T00:29:58.285Z,100.00
2019-04-28T00:32:32.648Z,100.00
2019-04-28T00:35:06.715Z,100.00
2019-04-28T00:37:39.355Z,100.00
2019-04-28T00:40:13.024Z,100.00
2019-04-28T00:42:45.696Z,100.00
2019-04-28T00:45:18.807Z,100.00
2019-04-28T00:47:54.044Z,100.00
2019-04-28T00:50:27.394Z,100.00
2019-04-28T00:53:01.749Z,100.00
2019-04-28T00:55:35.261Z,100.00
2019-04-28T00:58:06.915Z,100.00
2019-04-28T01:00:41.899Z,100.00
2019-04-28T01:03:15.110Z,100.00
2019-04-28T01:05:48.291Z,100.00
2019-04-28T01:08:20.988Z,100.00
2019-04-28T01:10:53.406Z,100.00
2019-04-28T01:13:26.417Z,100.00
2019-04-28T01:16:12.939Z,100.00
2019-04-28T01:18:52.711Z,100.00
2019-04-28T01:21:30.016Z,100.00
2019-04-28T01:24:03.866Z,100.00
2019-04-28T01:26:39.156Z,100.00
2019-04-28T01:29:13.880Z,100.00
2019-04-28T01:32:04.945Z,100.00
2019-04-28T01:34:40.011Z,100.00
2019-04-28T01:37:13.731Z,100.00
2019-04-28T01:39:47.227Z,100.00
2019-04-28T01:42:20.412Z,100.00
2019-04-28T01:44:53.664Z,100.00
2019-04-28T01:47:26.701Z,100.00
2019-04-28T01:50:01.875Z,100.00
2019-04-28T01:52:35.730Z,100.00
2019-04-28T01:55:10.107Z,100.00
2019-04-28T01:57:43.745Z,100.00
2019-04-28T02:00:23.085Z,100.00
2019-04-28T02:02:51.519Z,100.00
2019-04-28T02:05:25.893Z,100.00
2019-04-28T02:08:01.080Z,100.00
2019-04-28T02:10:35.124Z,100.00
2019-04-28T02:13:09.607Z,100.00
2019-04-28T02:15:44.109Z,100.00
2019-04-28T02:18:16.977Z,100.00
2019-04-28T02:20:55.187Z,100.00
2019-04-28T02:23:31.520Z,100.00
2019-04-28T02:26:04.941Z,100.00
2019-04-28T02:28:36.986Z,100.00
2019-04-28T02:31:11.507Z,100.00
2019-04-28T02:33:44.819Z,100.00
2019-04-28T02:36:17.708Z,100.00
2019-04-28T02:38:52.385Z,100.00
2019-04-28T02:41:25.631Z,100.00
2019-04-28T02:44:00.946Z,100.00
2019-04-28T02:46:34.062Z,100.00
2019-04-28T02:49:10.239Z,100.00
2019-04-28T02:51:51.126Z,100.00
2019-04-28T02:54:24.869Z,100.00
2019-04-28T02:57:01.071Z,100.00
2019-04-28T02:59:33.258Z,100.00
2019-04-28T03:02:06.478Z,100.00
2019-04-28T03:04:41.019Z,100.00
2019-04-28T03:07:14.802Z,100.00
2019-04-28T03:09:47.849Z,100.00
2019-04-28T03:12:21.541Z,100.00
2019-04-28T03:14:55.391Z,100.00
2019-04-28T03:17:30.978Z,100.00
2019-04-28T03:20:03.597Z,100.00
2019-04-28T03:22:36.509Z,100.00
2019-04-28T03:25:12.458Z,100.00
2019-04-28T03:28:03.605Z,100.00
2019-04-28T03:30:53.305Z,100.00
2019-04-28T03:33:26.205Z,100.00
2019-04-28T03:36:07.081Z,100.00
2019-04-28T03:38:35.253Z,100.00
2019-04-28T03:41:10.919Z,100.00
2019-04-28T03:43:43.233Z,100.00
2019-04-28T03:46:20.927Z,100.00
2019-04-28T03:48:54.474Z,100.00
2019-04-28T03:51:27.794Z,100.00
2019-04-28T03:54:02.915Z,100.00
2019-04-28T03:56:36.891Z,100.00
2019-04-28T03:59:11.315Z,100.00
2019-04-28T04:01:55.965Z,100.00
2019-04-28T04:04:21.292Z,100.00
2019-04-28T04:06:54.650Z,100.00
2019-04-28T04:09:31.248Z,100.00
2019-04-28T04:12:21.194Z,100.00
2019-04-28T04:15:03.995Z,100.00
2019-04-28T04:17:41.396Z,100.00
2019-04-28T04:20:23.778Z,100.00
2019-04-28T04:22:57.116Z,100.00
2019-04-28T04:25:31.417Z,100.00
2019-04-28T04:28:05.244Z,100.00
2019-04-28T04:30:40.961Z,100.00
2019-04-28T04:33:13.571Z,100.00
2019-04-28T04:35:46.684Z,100.00
2019-04-28T04:38:18.035Z,100.00
2019-04-28T04:40:51.396Z,100.00
2019-04-28T04:43:25.636Z,100.00
2019-04-28T04:46:17.040Z,100.00
2019-04-28T04:48:50.829Z,100.00
2019-04-28T04:51:24.827Z,100.00
2019-04-28T04:54:00.974Z,100.00
2019-04-28T04:56:34.674Z,100.00
2019-04-28T04:59:10.238Z,100.00
2019-04-28T05:02:02.049Z,100.00
2019-04-28T05:04:45.968Z,100.00
2019-04-28T05:07:19.747Z,100.00
2019-04-28T05:09:53.250Z,100.00
2019-04-28T05:12:25.343Z,100.00
2019-04-28T05:14:57.424Z,100.00
2019-04-28T05:17:30.477Z,100.00
2019-04-28T05:20:04.284Z,100.00
2019-04-28T05:22:42.686Z,100.00
2019-04-28T05:25:30.994Z,100.00
2019-04-28T05:28:02.877Z,100.00
2019-04-28T05:30:38.899Z,100.00
2019-04-28T05:33:13.669Z,100.00
2019-04-28T05:35:47.596Z,100.00
2019-04-28T05:38:21.522Z,100.00
2019-04-28T05:40:55.321Z,100.00
2019-04-28T05:43:29.994Z,100.00
2019-04-28T05:46:03.148Z,100.00
2019-04-28T05:48:41.888Z,100.00
2019-04-28T05:51:19.782Z,100.00
2019-04-28T05:53:59.752Z,100.00
2019-04-28T05:56:50.308Z,100.00
2019-04-28T05:59:46.729Z,100.00
2019-04-28T06:02:24.226Z,100.00
2019-04-28T06:04:57.266Z,100.00
2019-04-28T06:07:36.563Z,100.00
2019-04-28T06:10:12.423Z,100.00
2019-04-28T06:12:46.192Z,100.00
2019-04-28T06:15:20.540Z,100.00
2019-04-28T06:17:54.545Z,100.00
2019-04-28T06:20:30.217Z,100.00
2019-04-28T06:23:02.685Z,100.00
2019-04-28T06:25:35.737Z,100.00
2019-04-28T06:28:08.264Z,100.00
2019-04-28T06:30:41.726Z,100.00
2019-04-28T06:33:15.782Z,100.00
2019-04-28T06:35:49.646Z,100.00
2019-04-28T06:38:24.381Z,100.00
2019-04-28T06:40:57.978Z,100.00
2019-04-28T06:43:31.825Z,100.00
2019-04-28T06:46:05.154Z,100.00
2019-04-28T06:48:38.083Z,100.00
2019-04-28T06:51:11.590Z,100.00
2019-04-28T06:53:46.039Z,100.00
2019-04-28T06:56:20.734Z,100.00
2019-04-28T06:58:59.067Z,100.00
2019-04-28T07:01:30.701Z,100.00
2019-04-28T07:04:03.510Z,100.00
2019-04-28T07:06:36.437Z,100.00
2019-04-28T07:09:10.106Z,100.00
2019-04-28T07:11:43.849Z,100.00
2019-04-28T07:14:16.885Z,100.00
2019-04-28T07:16:49.717Z,100.00
2019-04-28T07:19:22.881Z,100.00
2019-04-28T07:22:09.872Z,100.00
2019-04-28T07:24:44.958Z,100.00
2019-04-28T07:27:17.918Z,100.00
2019-04-28T07:29:51.650Z,100.00
2019-04-28T07:32:25.152Z,100.00
2019-04-28T07:34:56.805Z,100.00
2019-04-28T07:37:29.192Z,100.00
2019-04-28T07:40:02.832Z,100.00
2019-04-28T07:42:36.222Z,100.00
2019-04-28T07:45:08.395Z,100.00
2019-04-28T07:47:41.208Z,100.00
2019-04-28T07:50:14.499Z,100.00
2019-04-28T07:52:55.836Z,100.00
2019-04-28T07:55:29.243Z,100.00
2019-04-28T07:58:00.972Z,100.00
2019-04-28T08:00:34.149Z,100.00
2019-04-28T08:03:07.521Z,100.00
2019-04-28T08:05:41.282Z,100.00
2019-04-28T08:08:15.368Z,100.00
2019-04-28T08:10:48.314Z,100.00
2019-04-28T08:13:21.684Z,100.00
2019-04-28T08:15:54.911Z,100.00
2019-04-28T08:18:27.861Z,100.00
2019-04-28T08:20:59.613Z,97.41
2019-04-28T08:23:32.923Z,99.44
2019-04-28T08:26:06.121Z,97.95
2019-04-28T08:28:40.487Z,95.49
2019-04-28T08:31:15.760Z,95.23
2019-04-28T08:34:02.296Z,91.18
2019-04-28T08:36:28.192Z,88.24
2019-04-28T08:39:02.558Z,89.40
2019-04-28T08:41:35.917Z,87.04
2019-04-28T08:44:06.993Z,84.06
2019-04-28T08:46:40.705Z,83.44
2019-04-28T08:49:13.743Z,83.65
2019-04-28T08:51:47.120Z,85.16
2019-04-28T08:54:21.887Z,82.77
2019-04-28T08:56:56.291Z,84.51
2019-04-28T08:59:29.598Z,84.68
2019-04-28T09:02:00.955Z,87.90
2019-04-28T09:04:33.879Z,85.37
2019-04-28T09:07:07.226Z,85.03
2019-04-28T09:09:38.995Z,83.92
2019-04-28T09:12:11.805Z,85.66
2019-04-28T09:14:45.140Z,83.05
2019-04-28T09:17:17.026Z,83.61
2019-04-28T09:19:50.393Z,80.30
2019-04-28T09:22:24.014Z,81.74
2019-04-28T09:24:57.990Z,77.35
2019-04-28T09:27:31.744Z,75.51
2019-04-28T09:30:05.544Z,76.06
2019-04-28T09:32:38.688Z,73.87
2019-04-28T09:35:13.244Z,74.50
2019-04-28T09:37:47.083Z,73.82
2019-04-28T09:40:20.989Z,72.11
2019-04-28T09:43:13.146Z,71.57
2019-04-28T09:45:54.977Z,66.94
2019-04-28T09:48:29.286Z,65.74
2019-04-28T09:51:02.859Z,65.58
2019-04-28T09:53:36.280Z,67.75
2019-04-28T09:56:09.407Z,67.04
2019-04-28T09:58:43.043Z,66.85
2019-04-28T10:01:16.110Z,68.60
2019-04-28T10:03:49.370Z,66.69
2019-04-28T10:06:22.043Z,67.68
2019-04-28T10:08:56.095Z,66.20
2019-04-28T10:11:30.583Z,66.31
2019-04-28T10:14:04.876Z,65.61
2019-04-28T10:16:38.919Z,66.76
2019-04-28T10:19:13.164Z,65.58
2019-04-28T10:21:47.652Z,63.44
2019-04-28T10:24:22.658Z,64.98
2019-04-28T10:26:56.544Z,63.76
2019-04-28T10:29:29.065Z,62.48
2019-04-28T10:32:21.026Z,58.75
2019-04-28T10:34:55.371Z,59.74
2019-04-28T10:37:29.626Z,58.35
2019-04-28T10:40:08.879Z,60.82
2019-04-28T10:42:42.317Z,60.25
2019-04-28T10:45:19.479Z,58.96
2019-04-28T10:47:51.906Z,57.52
2019-04-28T10:50:25.260Z,58.44
2019-04-28T10:52:59.245Z,59.78
2019-04-28T10:55:32.704Z,58.19
2019-04-28T10:58:06.005Z,60.85
2019-04-28T11:00:40.836Z,61.71
2019-04-28T11:03:14.006Z,61.88
2019-04-28T11:05:47.161Z,61.89
2019-04-28T11:08:27.824Z,60.93
2019-04-28T11:11:04.215Z,60.35
2019-04-28T11:13:37.505Z,60.80
2019-04-28T11:16:13.606Z,60.13
2019-04-28T11:18:47.191Z,61.46
2019-04-28T11:21:20.301Z,61.98
2019-04-28T11:23:53.081Z,62.42
2019-04-28T11:26:30.407Z,61.53
2019-04-28T11:29:04.251Z,62.07
2019-04-28T11:31:39.453Z,61.98
2019-04-28T11:34:22.310Z,61.71
2019-04-28T11:36:56.153Z,61.36
2019-04-28T11:39:32.700Z,60.17
2019-04-28T11:42:06.592Z,60.58
2019-04-28T11:44:40.779Z,59.91
2019-04-28T11:47:17.294Z,58.84
2019-04-28T11:49:50.903Z,60.15
2019-04-28T11:52:24.374Z,59.63
2019-04-28T11:54:58.954Z,59.82
2019-04-28T11:57:32.092Z,58.99
2019-04-28T12:00:10.827Z,60.55
2019-04-28T12:02:44.479Z,59.82
2019-04-28T12:05:19.483Z,59.15
2019-04-28T12:07:53.046Z,59.04
2019-04-28T12:10:30.688Z,58.14
2019-04-28T12:13:31.401Z,57.94
2019-04-28T12:16:23.202Z,57.66
2019-04-28T12:19:11.841Z,56.65
2019-04-28T12:21:44.543Z,57.24
2019-04-28T12:24:18.307Z,54.24
2019-04-28T12:26:51.026Z,55.31
2019-04-28T12:29:24.720Z,54.93
2019-04-28T12:31:57.677Z,54.94
2019-04-28T12:34:31.429Z,54.67
2019-04-28T12:37:05.954Z,54.52
2019-04-28T12:39:41.187Z,52.57
2019-04-28T12:42:15.962Z,51.47
2019-04-28T12:44:49.339Z,52.25
2019-04-28T12:47:22.393Z,50.69
2019-04-28T12:50:06.036Z,53.30
2019-04-28T12:52:38.714Z,53.85
2019-04-28T12:55:12.181Z,52.87
2019-04-28T12:57:46.442Z,51.67
2019-04-28T13:00:58.723Z,51.51
2019-04-28T13:03:44.167Z,51.41
2019-04-28T13:06:18.485Z,50.87
2019-04-28T13:08:51.553Z,51.58
2019-04-28T13:11:24.400Z,52.54
2019-04-28T13:13:58.232Z,51.59
2019-04-28T13:16:32.834Z,49.36
2019-04-28T13:19:07.296Z,49.13
2019-04-28T13:21:43.061Z,52.72
2019-04-28T13:24:16.363Z,51.63
2019-04-28T13:26:52.156Z,52.46
2019-04-28T13:29:24.663Z,52.17
2019-04-28T13:31:58.817Z,49.13
2019-04-28T13:34:33.947Z,51.93
2019-04-28T13:37:07.041Z,50.80
2019-04-28T13:39:46.596Z,51.65
2019-04-28T13:42:19.870Z,51.88
2019-04-28T13:45:01.184Z,51.02
2019-04-28T13:47:34.672Z,50.95
2019-04-28T13:50:17.397Z,49.69
2019-04-28T13:52:52.429Z,50.31
2019-04-28T13:55:43.164Z,47.17
2019-04-28T13:58:18.391Z,47.82
2019-04-28T14:01:14.182Z,45.91
2019-04-28T14:04:05.635Z,49.37
2019-04-28T14:06:44.665Z,46.67
2019-04-28T14:09:18.906Z,46.07
2019-04-28T14:11:52.561Z,45.37
2019-04-28T14:14:25.983Z,43.98
2019-04-28T14:16:59.162Z,44.07
2019-04-28T14:19:33.101Z,43.41
2019-04-28T14:22:06.596Z,41.94
2019-04-28T14:24:39.998Z,46.33
2019-04-28T14:27:13.188Z,45.15
2019-04-28T14:29:47.836Z,47.90
2019-04-28T14:32:22.484Z,45.21
2019-04-28T14:34:55.320Z,46.42
2019-04-28T14:37:28.404Z,47.18
2019-04-28T14:40:01.826Z,48.01
2019-04-28T14:42:36.020Z,46.54
2019-04-28T14:45:09.763Z,46.95
2019-04-28T14:47:45.283Z,48.44
2019-04-28T14:50:18.687Z,48.59
2019-04-28T14:52:51.489Z,48.73
2019-04-28T14:55:25.216Z,49.98
2019-04-28T14:57:58.611Z,50.05
2019-04-28T15:00:37.729Z,50.70
2019-04-28T15:03:13.088Z,51.08
2019-04-28T15:05:55.611Z,50.77
2019-04-28T15:08:47.163Z,50.76
2019-04-28T15:11:39.533Z,51.32
2019-04-28T15:14:12.806Z,52.48
2019-04-28T15:16:45.986Z,52.31
2019-04-28T15:19:18.834Z,53.56
2019-04-28T15:21:54.555Z,52.69
2019-04-28T15:24:27.227Z,52.28
2019-04-28T15:27:01.082Z,52.83
2019-04-28T15:29:38.579Z,53.20
2019-04-28T15:32:11.715Z,52.57
2019-04-28T15:34:49.229Z,53.24
2019-04-28T15:37:22.580Z,53.59
2019-04-28T15:39:55.384Z,54.66
2019-04-28T15:42:26.925Z,55.00
2019-04-28T15:45:00.302Z,55.69
2019-04-28T15:47:34.267Z,55.81
2019-04-28T15:50:08.579Z,55.02
2019-04-28T15:52:41.272Z,55.07
2019-04-28T15:55:17.572Z,54.73
2019-04-28T15:57:50.797Z,55.40
2019-04-28T16:00:31.605Z,55.83
2019-04-28T16:03:05.462Z,54.64
2019-04-28T16:05:38.848Z,54.26
2019-04-28T16:08:11.886Z,54.88
2019-04-28T16:10:46.071Z,54.83
2019-04-28T16:13:21.255Z,54.50
2019-04-28T16:15:57.049Z,54.64
2019-04-28T16:18:32.057Z,54.50
2019-04-28T16:21:05.124Z,55.21
2019-04-28T16:23:38.317Z,56.61
2019-04-28T16:26:12.020Z,55.30
2019-04-28T16:28:47.221Z,56.56
2019-04-28T16:31:20.074Z,57.22
2019-04-28T16:33:53.874Z,56.67
2019-04-28T16:36:28.318Z,57.45
2019-04-28T16:39:01.721Z,56.49
2019-04-28T16:41:43.548Z,56.26
2019-04-28T16:44:25.461Z,56.88
2019-04-28T16:46:57.868Z,56.68
2019-04-28T16:49:32.044Z,57.17
2019-04-28T16:52:06.386Z,57.11
2019-04-28T16:54:41.335Z,57.92
2019-04-28T16:57:32.930Z,58.51
2019-04-28T17:00:37.614Z,59.64
2019-04-28T17:03:10.564Z,57.08
2019-04-28T17:05:43.986Z,57.48
2019-04-28T17:08:17.498Z,59.00
2019-04-28T17:10:52.899Z,57.71
2019-04-28T17:13:26.141Z,57.72
2019-04-28T17:16:00.822Z,57.94
2019-04-28T17:18:35.085Z,57.83
2019-04-28T17:21:08.647Z,57.00
2019-04-28T17:23:42.366Z,57.81
2019-04-28T17:26:15.989Z,57.80
2019-04-28T17:28:51.295Z,59.44
2019-04-28T17:31:25.595Z,57.06
2019-04-28T17:33:58.755Z,57.31
2019-04-28T17:36:31.708Z,57.19
2019-04-28T17:39:09.737Z,58.10
2019-04-28T17:41:43.554Z,59.51
2019-04-28T17:44:17.282Z,59.71
2019-04-28T17:46:51.596Z,60.88
2019-04-28T17:49:33.052Z,60.19
2019-04-28T17:52:10.016Z,59.51
2019-04-28T17:54:44.042Z,59.66
2019-04-28T17:57:16.714Z,59.37
2019-04-28T17:59:52.613Z,59.76
2019-04-28T18:02:43.180Z,60.85
2019-04-28T18:05:31.319Z,61.33
2019-04-28T18:08:05.436Z,62.02
2019-04-28T18:10:39.443Z,61.29
2019-04-28T18:13:13.561Z,62.27
2019-04-28T18:16:03.785Z,62.95
2019-04-28T18:18:42.810Z,64.13
2019-04-28T18:21:16.281Z,63.78
2019-04-28T18:23:50.712Z,64.53
2019-04-28T18:26:24.141Z,65.83
2019-04-28T18:28:58.213Z,66.95
2019-04-28T18:31:56.418Z,65.70
2019-04-28T18:34:54.027Z,66.41
2019-04-28T18:37:46.601Z,67.02
2019-04-28T18:40:41.601Z,67.50
2019-04-28T18:43:25.695Z,68.77
2019-04-28T18:45:59.836Z,68.91
2019-04-28T18:48:36.067Z,69.35
2019-04-28T18:51:08.290Z,70.44
2019-04-28T18:53:40.361Z,70.20
2019-04-28T18:56:13.446Z,71.68
2019-04-28T18:58:47.334Z,71.56
2019-04-28T19:01:40.204Z,72.08
2019-04-28T19:04:14.035Z,73.34
2019-04-28T19:06:48.190Z,73.16
2019-04-28T19:09:46.508Z,73.18
2019-04-28T19:12:27.833Z,73.05
2019-04-28T19:15:26.422Z,73.36
2019-04-28T19:18:08.185Z,75.28
2019-04-28T19:20:50.359Z,74.90
2019-04-28T19:23:26.145Z,75.86
2019-04-28T19:25:59.741Z,77.63
2019-04-28T19:28:33.575Z,80.26
2019-04-28T19:31:06.818Z,81.04
2019-04-28T19:33:40.211Z,81.80
2019-04-28T19:36:13.516Z,82.17
2019-04-28T19:38:46.603Z,81.83
2019-04-28T19:41:18.742Z,82.53
2019-04-28T19:43:50.754Z,83.12
2019-04-28T19:46:27.527Z,80.87
2019-04-28T19:49:03.186Z,80.85
2019-04-28T19:51:37.513Z,81.28
2019-04-28T19:54:11.893Z,80.61
2019-04-28T19:56:50.103Z,81.85
2019-04-28T19:59:42.036Z,83.34
2019-04-28T20:02:15.740Z,84.12
2019-04-28T20:04:56.397Z,86.57
2019-04-28T20:07:30.366Z,85.63
2019-04-28T20:10:04.252Z,83.28
2019-04-28T20:12:37.836Z,84.67
2019-04-28T20:15:15.892Z,84.03
2019-04-28T20:17:50.983Z,85.48
2019-04-28T20:20:26.698Z,84.68
2019-04-28T20:22:59.899Z,83.94
2019-04-28T20:25:33.631Z,83.55
2019-04-28T20:28:07.091Z,84.39
2019-04-28T20:30:39.137Z,85.15
2019-04-28T20:33:12.339Z,84.25
2019-04-28T20:35:50.869Z,85.51
2019-04-28T20:38:31.577Z,86.07
2019-04-28T20:41:26.837Z,86.50
2019-04-28T20:44:02.572Z,87.00
2019-04-28T20:46:36.506Z,88.80
2019-04-28T20:49:10.598Z,88.00
2019-04-28T20:51:45.073Z,87.70
2019-04-28T20:54:20.393Z,86.70
2019-04-28T20:56:56.773Z,87.20
2019-04-28T20:59:31.143Z,86.31
2019-04-28T21:02:04.633Z,86.92
2019-04-28T21:04:36.133Z,86.04
2019-04-28T21:07:09.443Z,86.64
2019-04-28T21:09:42.883Z,88.80
2019-04-28T21:12:15.997Z,88.06
2019-04-28T21:14:49.366Z,87.27
2019-04-28T21:17:24.609Z,86.14
2019-04-28T21:19:58.163Z,87.37
2019-04-28T21:22:33.643Z,87.87
2019-04-28T21:25:07.451Z,89.06
2019-04-28T21:27:40.813Z,88.50
2019-04-28T21:30:14.070Z,89.03
2019-04-28T21:32:45.698Z,88.41
2019-04-28T21:35:20.482Z,90.34
2019-04-28T21:37:53.370Z,91.81
2019-04-28T21:40:27.658Z,89.94
2019-04-28T21:43:21.847Z,89.16
2019-04-28T21:46:08.979Z,87.05
2019-04-28T21:48:58.199Z,88.53
2019-04-28T21:51:32.689Z,90.77
2019-04-28T21:54:07.745Z,92.55
2019-04-28T21:56:41.539Z,89.67
2019-04-28T21:59:15.248Z,90.47
2019-04-28T22:01:49.782Z,90.38
2019-04-28T22:04:23.303Z,88.90
2019-04-28T22:06:54.631Z,90.71
2019-04-28T22:09:31.080Z,89.15
2019-04-28T22:12:06.558Z,89.92
2019-04-28T22:14:41.026Z,89.32
2019-04-28T22:17:17.779Z,89.01
2019-04-28T22:19:52.243Z,89.46
2019-04-28T22:22:25.915Z,90.03
2019-04-28T22:25:05.130Z,90.19
2019-04-28T22:27:42.154Z,89.08
2019-04-28T22:30:15.488Z,89.31
2019-04-28T22:32:48.762Z,90.63
2019-04-28T22:35:21.733Z,89.81
2019-04-28T22:37:55.474Z,91.23
2019-04-28T22:40:28.468Z,94.03
2019-04-28T22:43:02.639Z,91.00
2019-04-28T22:45:36.978Z,91.83
2019-04-28T22:48:11.993Z,90.21
2019-04-28T22:50:48.385Z,93.20
2019-04-28T22:53:25.539Z,93.65
2019-04-28T22:56:07.126Z,95.05
2019-04-28T22:58:49.160Z,93.36
2019-04-28T23:01:34.601Z,92.83
2019-04-28T23:04:11.675Z,92.12
2019-04-28T23:06:45.507Z,92.64
2019-04-28T23:09:20.884Z,94.26
2019-04-28T23:11:56.737Z,92.84
2019-04-28T23:14:30.247Z,95.89
2019-04-28T23:17:01.621Z,95.93
2019-04-28T23:19:36.572Z,96.78
2019-04-28T23:22:15.407Z,95.51
2019-04-28T23:24:50.914Z,95.36
2019-04-28T23:27:24.110Z,93.84
2019-04-28T23:29:57.359Z,93.68
2019-04-28T23:32:31.537Z,95.17
2019-04-28T23:35:04.106Z,97.51
2019-04-28T23:37:38.093Z,95.84
2019-04-28T23:40:14.376Z,92.21
2019-04-28T23:42:53.869Z,93.99
2019-04-28T23:45:27.426Z,91.85
2019-04-28T23:48:01.159Z,93.22
2019-04-28T23:50:46.537Z,94.35
2019-04-28T23:53:21.556Z,92.72
2019-04-28T23:55:54.582Z,92.88
2019-04-28T23:58:28.730Z,94.82
